sensor_id;sensor_type;location;lat;lon;timestamp;pressure;altitude;pressure_sealevel;temperature;humidity
32251;BME280;41295;48.518;9.206;2023-05-25T00:00:18;97530.44;;;14.52;45.79
32251;BME280;41295;48.518;9.206;2023-05-25T00:02:21;97528.72;;;14.51;46.07
32251;BME280;41295;48.518;9.206;2023-05-25T00:04:25;97530.66;;;14.48;45.93
32251;BME280;41295;48.518;9.206;2023-05-25T00:06:31;97537.63;;;14.49;46.00
32251;BME280;41295;48.518;9.206;2023-05-25T00:08:38;97529.13;;;14.43;46.11
32251;BME280;41295;48.518;9.206;2023-05-25T00:10:41;97525.72;;;14.41;46.32
32251;BME280;41295;48.518;9.206;2023-05-25T00:12:44;97536.44;;;14.37;46.16
32251;BME280;41295;48.518;9.206;2023-05-25T00:14:48;97539.22;;;14.34;46.32
32251;BME280;41295;48.518;9.206;2023-05-25T00:16:50;97533.88;;;14.35;46.41
32251;BME280;41295;48.518;9.206;2023-05-25T00:18:53;97540.06;;;14.34;46.28
32251;BME280;41295;48.518;9.206;2023-05-25T00:20:58;97532.13;;;14.36;46.14
32251;BME280;41295;48.518;9.206;2023-05-25T00:23:07;97535.59;;;14.36;46.16
32251;BME280;41295;48.518;9.206;2023-05-25T00:25:09;97531.19;;;14.37;46.59
32251;BME280;41295;48.518;9.206;2023-05-25T00:27:12;97534.66;;;14.37;46.27
32251;BME280;41295;48.518;9.206;2023-05-25T00:29:15;97530.28;;;14.38;46.05
32251;BME280;41295;48.518;9.206;2023-05-25T00:31:18;97531.34;;;14.34;46.22
32251;BME280;41295;48.518;9.206;2023-05-25T00:33:22;97528.72;;;14.34;46.33
32251;BME280;41295;48.518;9.206;2023-05-25T00:35:25;97530.44;;;14.35;46.47
32251;BME280;41295;48.518;9.206;2023-05-25T00:37:27;97536.50;;;14.35;46.23
32251;BME280;41295;48.518;9.206;2023-05-25T00:39:30;97530.47;;;14.33;46.37
32251;BME280;41295;48.518;9.206;2023-05-25T00:41:33;97529.75;;;14.31;46.64
32251;BME280;41295;48.518;9.206;2023-05-25T00:43:37;97528.97;;;14.29;46.77
32251;BME280;41295;48.518;9.206;2023-05-25T00:45:39;97522.78;;;14.30;46.99
32251;BME280;41295;48.518;9.206;2023-05-25T00:47:44;97523.00;;;14.25;46.90
32251;BME280;41295;48.518;9.206;2023-05-25T00:49:47;97525.72;;;14.24;46.77
32251;BME280;41295;48.518;9.206;2023-05-25T00:51:51;97521.38;;;14.23;46.97
32251;BME280;41295;48.518;9.206;2023-05-25T00:53:54;97519.69;;;14.22;47.13
32251;BME280;41295;48.518;9.206;2023-05-25T00:56:01;97519.88;;;14.17;47.15
32251;BME280;41295;48.518;9.206;2023-05-25T00:58:07;97524.22;;;14.18;47.20
32251;BME280;41295;48.518;9.206;2023-05-25T01:00:10;97524.22;;;14.18;47.54
32251;BME280;41295;48.518;9.206;2023-05-25T01:02:15;97526.78;;;14.19;47.24
32251;BME280;41295;48.518;9.206;2023-05-25T01:04:21;97518.03;;;14.19;47.52
32251;BME280;41295;48.518;9.206;2023-05-25T01:06:25;97518.13;;;14.17;47.98
32251;BME280;41295;48.518;9.206;2023-05-25T01:08:33;97525.13;;;14.17;47.87
32251;BME280;41295;48.518;9.206;2023-05-25T01:10:37;97527.00;;;14.15;47.59
32251;BME280;41295;48.518;9.206;2023-05-25T01:12:41;97521.88;;;14.12;47.68
32251;BME280;41295;48.518;9.206;2023-05-25T01:14:46;97525.72;;;14.04;47.83
32251;BME280;41295;48.518;9.206;2023-05-25T01:16:50;97523.19;;;14.03;48.21
32251;BME280;41295;48.518;9.206;2023-05-25T01:18:54;97515.47;;;14.00;48.22
32251;BME280;41295;48.518;9.206;2023-05-25T01:21:03;97515.81;;;13.92;47.89
32251;BME280;41295;48.518;9.206;2023-05-25T01:23:14;97515.06;;;13.90;48.20
32251;BME280;41295;48.518;9.206;2023-05-25T01:25:21;97511.66;;;13.88;48.23
32251;BME280;41295;48.518;9.206;2023-05-25T01:27:30;97510.03;;;13.85;48.34
32251;BME280;41295;48.518;9.206;2023-05-25T01:29:39;97510.25;;;13.80;48.37
32251;BME280;41295;48.518;9.206;2023-05-25T01:31:44;97512.16;;;13.77;48.46
32251;BME280;41295;48.518;9.206;2023-05-25T01:33:48;97514.00;;;13.75;48.53
32251;BME280;41295;48.518;9.206;2023-05-25T01:35:52;97517.75;;;13.69;48.98
32251;BME280;41295;48.518;9.206;2023-05-25T01:37:57;97514.44;;;13.65;48.76
32251;BME280;41295;48.518;9.206;2023-05-25T01:40:00;97516.41;;;13.60;49.02
32251;BME280;41295;48.518;9.206;2023-05-25T01:42:03;97516.56;;;13.57;49.27
32251;BME280;41295;48.518;9.206;2023-05-25T01:44:06;97516.63;;;13.55;49.42
32251;BME280;41295;48.518;9.206;2023-05-25T01:46:15;97514.91;;;13.54;49.58
32251;BME280;41295;48.518;9.206;2023-05-25T01:48:24;97513.50;;;13.47;50.17
32251;BME280;41295;48.518;9.206;2023-05-25T01:50:33;97520.75;;;13.40;50.52
32251;BME280;41295;48.518;9.206;2023-05-25T01:52:41;97512.25;;;13.35;50.53
32251;BME280;41295;48.518;9.206;2023-05-25T01:54:51;97520.28;;;13.32;51.37
32251;BME280;41295;48.518;9.206;2023-05-25T01:56:57;97517.72;;;13.30;51.31
32251;BME280;41295;48.518;9.206;2023-05-25T01:59:02;97522.09;;;13.30;51.14
32251;BME280;41295;48.518;9.206;2023-05-25T02:01:08;97522.09;;;13.30;50.83
32251;BME280;41295;48.518;9.206;2023-05-25T02:03:12;97522.09;;;13.30;50.98
32251;BME280;41295;48.518;9.206;2023-05-25T02:05:14;97512.56;;;13.29;51.05
32251;BME280;41295;48.518;9.206;2023-05-25T02:07:17;97516.03;;;13.29;51.11
32251;BME280;41295;48.518;9.206;2023-05-25T02:09:20;97509.00;;;13.30;51.18
32251;BME280;41295;48.518;9.206;2023-05-25T02:11:24;97510.78;;;13.29;51.10
32251;BME280;41295;48.518;9.206;2023-05-25T02:13:28;97508.22;;;13.28;51.17
32251;BME280;41295;48.518;9.206;2023-05-25T02:15:32;97508.28;;;13.26;51.38
32251;BME280;41295;48.518;9.206;2023-05-25T02:17:34;97504.84;;;13.26;51.47
32251;BME280;41295;48.518;9.206;2023-05-25T02:19:38;97504.00;;;13.25;51.30
32251;BME280;41295;48.518;9.206;2023-05-25T02:21:40;97503.13;;;13.25;51.48
32251;BME280;41295;48.518;9.206;2023-05-25T02:23:44;97504.00;;;13.25;51.38
32251;BME280;41295;48.518;9.206;2023-05-25T02:25:48;97496.22;;;13.23;51.30
32251;BME280;41295;48.518;9.206;2023-05-25T02:27:53;97505.97;;;13.20;51.22
32251;BME280;41295;48.518;9.206;2023-05-25T02:29:56;97508.59;;;13.20;51.43
32251;BME280;41295;48.518;9.206;2023-05-25T02:31:58;97503.53;;;13.15;51.59
32251;BME280;41295;48.518;9.206;2023-05-25T02:34:01;97502.00;;;13.11;51.97
32251;BME280;41295;48.518;9.206;2023-05-25T02:36:04;97501.13;;;13.10;52.22
32251;BME280;41295;48.518;9.206;2023-05-25T02:38:07;97502.97;;;13.08;52.16
32251;BME280;41295;48.518;9.206;2023-05-25T02:40:11;97507.34;;;13.08;52.01
32251;BME280;41295;48.518;9.206;2023-05-25T02:42:14;97502.25;;;13.05;52.15
32251;BME280;41295;48.518;9.206;2023-05-25T02:44:18;97508.41;;;13.04;52.46
32251;BME280;41295;48.518;9.206;2023-05-25T02:46:20;97502.38;;;13.02;52.54
32251;BME280;41295;48.518;9.206;2023-05-25T02:48:24;97507.69;;;13.00;52.73
32251;BME280;41295;48.518;9.206;2023-05-25T02:50:26;97506.03;;;12.97;52.81
32251;BME280;41295;48.518;9.206;2023-05-25T02:52:29;97507.06;;;12.95;52.70
32251;BME280;41295;48.518;9.206;2023-05-25T02:54:33;97513.31;;;12.91;52.83
32251;BME280;41295;48.518;9.206;2023-05-25T02:56:36;97510.84;;;12.87;53.14
32251;BME280;41295;48.518;9.206;2023-05-25T02:58:39;97510.13;;;12.84;53.92
32251;BME280;41295;48.518;9.206;2023-05-25T03:00:44;97511.31;;;12.77;54.18
32251;BME280;41295;48.518;9.206;2023-05-25T03:02:47;97504.69;;;12.68;54.57
32251;BME280;41295;48.518;9.206;2023-05-25T03:04:50;97505.94;;;12.59;54.92
32251;BME280;41295;48.518;9.206;2023-05-25T03:06:54;97505.16;;;12.57;55.01
32251;BME280;41295;48.518;9.206;2023-05-25T03:08:57;97497.44;;;12.54;55.02
32251;BME280;41295;48.518;9.206;2023-05-25T03:10:59;97511.56;;;12.49;55.25
32251;BME280;41295;48.518;9.206;2023-05-25T03:13:02;97504.69;;;12.47;55.77
32251;BME280;41295;48.518;9.206;2023-05-25T03:15:05;97506.59;;;12.43;55.71
32251;BME280;41295;48.518;9.206;2023-05-25T03:17:10;97511.81;;;12.43;55.55
32251;BME280;41295;48.518;9.206;2023-05-25T03:19:13;97513.50;;;12.44;55.88
32251;BME280;41295;48.518;9.206;2023-05-25T03:21:16;97513.44;;;12.46;55.89
32251;BME280;41295;48.518;9.206;2023-05-25T03:23:19;97512.63;;;12.45;55.34
32251;BME280;41295;48.518;9.206;2023-05-25T03:25:21;97510.25;;;12.39;55.77
32251;BME280;41295;48.518;9.206;2023-05-25T03:27:24;97514.00;;;12.32;55.49
32251;BME280;41295;48.518;9.206;2023-05-25T03:29:27;97507.09;;;12.31;55.97
32251;BME280;41295;48.518;9.206;2023-05-25T03:31:29;97518.84;;;12.20;56.27
32251;BME280;41295;48.518;9.206;2023-05-25T03:33:33;97516.53;;;12.12;57.04
32251;BME280;41295;48.518;9.206;2023-05-25T03:35:36;97515.91;;;12.06;56.94
32251;BME280;41295;48.518;9.206;2023-05-25T03:37:39;97515.22;;;12.00;57.61
32251;BME280;41295;48.518;9.206;2023-05-25T03:39:41;97517.06;;;11.98;57.64
32251;BME280;41295;48.518;9.206;2023-05-25T03:41:44;97514.38;;;12.00;57.62
32251;BME280;41295;48.518;9.206;2023-05-25T03:43:46;97506.47;;;12.01;57.58
32251;BME280;41295;48.518;9.206;2023-05-25T03:45:49;97503.78;;;12.03;57.83
32251;BME280;41295;48.518;9.206;2023-05-25T03:47:52;97497.59;;;12.06;57.59
32251;BME280;41295;48.518;9.206;2023-05-25T03:49:56;97496.50;;;12.11;57.24
32251;BME280;41295;48.518;9.206;2023-05-25T03:51:59;97502.47;;;12.15;56.62
32251;BME280;41295;48.518;9.206;2023-05-25T03:54:01;97509.22;;;12.21;56.32
32251;BME280;41295;48.518;9.206;2023-05-25T03:56:05;97514.38;;;12.22;56.12
32251;BME280;41295;48.518;9.206;2023-05-25T03:58:07;97519.88;;;12.16;56.71
32251;BME280;41295;48.518;9.206;2023-05-25T04:00:12;97520.03;;;12.11;57.53
32251;BME280;41295;48.518;9.206;2023-05-25T04:02:15;97528.84;;;12.09;57.19
32251;BME280;41295;48.518;9.206;2023-05-25T04:04:19;97525.56;;;12.03;58.21
32251;BME280;41295;48.518;9.206;2023-05-25T04:06:23;97522.16;;;12.01;58.07
32251;BME280;41295;48.518;9.206;2023-05-25T04:08:27;97525.69;;;12.00;58.01
32251;BME280;41295;48.518;9.206;2023-05-25T04:10:30;97522.16;;;12.01;57.87
32251;BME280;41295;48.518;9.206;2023-05-25T04:12:33;97522.88;;;12.05;58.46
32251;BME280;41295;48.518;9.206;2023-05-25T04:14:36;97522.72;;;12.10;57.97
32251;BME280;41295;48.518;9.206;2023-05-25T04:16:39;97519.94;;;12.14;58.00
32251;BME280;41295;48.518;9.206;2023-05-25T04:18:42;97519.75;;;12.19;57.64
32251;BME280;41295;48.518;9.206;2023-05-25T04:20:45;97520.47;;;12.23;56.76
32251;BME280;41295;48.518;9.206;2023-05-25T04:22:49;97535.13;;;12.27;56.90
32251;BME280;41295;48.518;9.206;2023-05-25T04:24:52;97531.72;;;12.25;56.59
32251;BME280;41295;48.518;9.206;2023-05-25T04:26:55;97538.56;;;12.27;56.83
32251;BME280;41295;48.518;9.206;2023-05-25T04:28:58;97535.97;;;12.27;56.93
32251;BME280;41295;48.518;9.206;2023-05-25T04:31:02;97536.81;;;12.28;56.85
32251;BME280;41295;48.518;9.206;2023-05-25T04:33:05;97536.75;;;12.30;56.93
32251;BME280;41295;48.518;9.206;2023-05-25T04:35:08;97531.53;;;12.30;57.57
32251;BME280;41295;48.518;9.206;2023-05-25T04:37:11;97531.28;;;12.36;58.24
32251;BME280;41295;48.518;9.206;2023-05-25T04:39:15;97532.19;;;12.35;57.57
32251;BME280;41295;48.518;9.206;2023-05-25T04:41:17;97533.97;;;12.34;57.41
32251;BME280;41295;48.518;9.206;2023-05-25T04:43:20;97534.88;;;12.33;57.48
32251;BME280;41295;48.518;9.206;2023-05-25T04:45:23;97535.72;;;12.34;57.36
32251;BME280;41295;48.518;9.206;2023-05-25T04:47:26;97540.88;;;12.35;57.45
32251;BME280;41295;48.518;9.206;2023-05-25T04:49:29;97526.88;;;12.36;57.13
32251;BME280;41295;48.518;9.206;2023-05-25T04:51:32;97526.84;;;12.38;57.33
32251;BME280;41295;48.518;9.206;2023-05-25T04:53:36;97539.00;;;12.39;57.20
32251;BME280;41295;48.518;9.206;2023-05-25T04:55:40;97540.66;;;12.42;57.40
32251;BME280;41295;48.518;9.206;2023-05-25T04:57:43;97537.97;;;12.43;57.52
32251;BME280;41295;48.518;9.206;2023-05-25T04:59:45;97537.03;;;12.44;57.66
32251;BME280;41295;48.518;9.206;2023-05-25T05:01:51;97541.38;;;12.45;57.56
32251;BME280;41295;48.518;9.206;2023-05-25T05:03:54;97548.16;;;12.49;57.44
32251;BME280;41295;48.518;9.206;2023-05-25T05:05:56;97544.66;;;12.50;57.85
32251;BME280;41295;48.518;9.206;2023-05-25T05:07:59;97550.72;;;12.51;57.86
32251;BME280;41295;48.518;9.206;2023-05-25T05:10:04;97553.25;;;12.53;57.96
32251;BME280;41295;48.518;9.206;2023-05-25T05:12:09;97552.31;;;12.55;58.17
32251;BME280;41295;48.518;9.206;2023-05-25T05:14:12;97550.47;;;12.57;58.03
32251;BME280;41295;48.518;9.206;2023-05-25T05:16:15;97548.75;;;12.56;57.56
32251;BME280;41295;48.518;9.206;2023-05-25T05:18:17;97553.88;;;12.59;57.61
32251;BME280;41295;48.518;9.206;2023-05-25T05:20:20;97560.81;;;12.60;57.69
32251;BME280;41295;48.518;9.206;2023-05-25T05:22:23;97568.66;;;12.60;57.67
32251;BME280;41295;48.518;9.206;2023-05-25T05:24:25;97572.00;;;12.64;57.74
32251;BME280;41295;48.518;9.206;2023-05-25T05:26:28;97575.41;;;12.66;58.08
32251;BME280;41295;48.518;9.206;2023-05-25T05:28:46;97580.50;;;12.69;57.39
32251;BME280;41295;48.518;9.206;2023-05-25T05:30:48;97575.19;;;12.71;57.73
32251;BME280;41295;48.518;9.206;2023-05-25T05:32:51;97584.63;;;12.75;57.22
32251;BME280;41295;48.518;9.206;2023-05-25T05:34:54;97583.59;;;12.79;57.20
32251;BME280;41295;48.518;9.206;2023-05-25T05:36:56;97589.66;;;12.80;57.24
32251;BME280;41295;48.518;9.206;2023-05-25T05:39:00;97591.31;;;12.82;56.97
32251;BME280;41295;48.518;9.206;2023-05-25T05:41:03;97593.16;;;12.80;56.56
32251;BME280;41295;48.518;9.206;2023-05-25T05:43:12;97592.03;;;12.86;56.86
32251;BME280;41295;48.518;9.206;2023-05-25T05:45:16;97595.31;;;12.91;57.50
32251;BME280;41295;48.518;9.206;2023-05-25T05:47:19;97600.28;;;12.97;57.55
32251;BME280;41295;48.518;9.206;2023-05-25T05:49:22;97594.78;;;13.04;57.69
32251;BME280;41295;48.518;9.206;2023-05-25T05:51:25;97595.53;;;13.07;57.65
32251;BME280;41295;48.518;9.206;2023-05-25T05:53:27;97591.81;;;13.11;57.54
32251;BME280;41295;48.518;9.206;2023-05-25T05:55:30;97603.03;;;13.15;57.47
32251;BME280;41295;48.518;9.206;2023-05-25T05:57:33;97604.69;;;13.18;57.05
32251;BME280;41295;48.518;9.206;2023-05-25T05:59:36;97613.38;;;13.18;57.40
32251;BME280;41295;48.518;9.206;2023-05-25T06:01:41;97612.31;;;13.22;57.00
32251;BME280;41295;48.518;9.206;2023-05-25T06:03:44;97615.59;;;13.28;57.38
32251;BME280;41295;48.518;9.206;2023-05-25T06:05:47;97611.13;;;13.30;57.30
32251;BME280;41295;48.518;9.206;2023-05-25T06:07:50;97615.59;;;13.28;56.30
32251;BME280;41295;48.518;9.206;2023-05-25T06:09:53;97610.25;;;13.31;56.99
32251;BME280;41295;48.518;9.206;2023-05-25T06:11:56;97604.00;;;13.33;57.28
32251;BME280;41295;48.518;9.206;2023-05-25T06:13:58;97600.41;;;13.36;57.32
32251;BME280;41295;48.518;9.206;2023-05-25T06:16:01;97610.59;;;13.42;57.64
32251;BME280;41295;48.518;9.206;2023-05-25T06:18:05;97606.09;;;13.46;57.38
32251;BME280;41295;48.518;9.206;2023-05-25T06:20:09;97599.00;;;13.48;57.37
32251;BME280;41295;48.518;9.206;2023-05-25T06:22:12;97605.09;;;13.49;56.87
32251;BME280;41295;48.518;9.206;2023-05-25T06:24:14;97601.47;;;13.51;57.08
32251;BME280;41295;48.518;9.206;2023-05-25T06:26:17;97606.56;;;13.56;57.71
32251;BME280;41295;48.518;9.206;2023-05-25T06:28:20;97604.06;;;13.53;56.47
32251;BME280;41295;48.518;9.206;2023-05-25T06:30:22;97604.72;;;13.58;56.84
32251;BME280;41295;48.518;9.206;2023-05-25T06:32:25;97608.00;;;13.63;57.06
32251;BME280;41295;48.518;9.206;2023-05-25T06:34:29;97607.78;;;13.68;57.79
32251;BME280;41295;48.518;9.206;2023-05-25T06:36:32;97608.34;;;13.75;58.20
32251;BME280;41295;48.518;9.206;2023-05-25T06:38:35;97615.16;;;13.79;57.81
32251;BME280;41295;48.518;9.206;2023-05-25T06:40:37;97610.56;;;13.84;57.77
32251;BME280;41295;48.518;9.206;2023-05-25T06:42:40;97612.06;;;13.90;57.66
32251;BME280;41295;48.518;9.206;2023-05-25T06:44:43;97614.53;;;13.93;57.23
32251;BME280;41295;48.518;9.206;2023-05-25T06:46:46;97620.41;;;13.98;57.55
32251;BME280;41295;48.518;9.206;2023-05-25T06:48:48;97622.06;;;14.01;57.42
32251;BME280;41295;48.518;9.206;2023-05-25T06:50:52;97621.91;;;14.04;57.09
32251;BME280;41295;48.518;9.206;2023-05-25T06:52:55;97626.06;;;14.08;56.96
32251;BME280;41295;48.518;9.206;2023-05-25T06:55:00;97626.66;;;14.15;57.17
32251;BME280;41295;48.518;9.206;2023-05-25T06:57:04;97635.41;;;14.14;57.17
32251;BME280;41295;48.518;9.206;2023-05-25T06:59:07;97630.81;;;14.19;57.16
32251;BME280;41295;48.518;9.206;2023-05-25T07:01:09;97638.47;;;14.24;57.02
32251;BME280;41295;48.518;9.206;2023-05-25T07:03:12;97631.25;;;14.29;56.99
32251;BME280;41295;48.518;9.206;2023-05-25T07:05:15;97629.41;;;14.31;57.25
32251;BME280;41295;48.518;9.206;2023-05-25T07:07:19;97640.53;;;14.36;57.21
32251;BME280;41295;48.518;9.206;2023-05-25T07:09:22;97635.13;;;14.39;57.41
32251;BME280;41295;48.518;9.206;2023-05-25T07:11:25;97639.31;;;14.43;57.35
32251;BME280;41295;48.518;9.206;2023-05-25T07:13:28;97636.25;;;14.34;58.10
32251;BME280;41295;48.518;9.206;2023-05-25T07:15:31;97640.28;;;14.41;57.66
32251;BME280;41295;48.518;9.206;2023-05-25T07:17:33;97634.97;;;14.42;57.53
32251;BME280;41295;48.518;9.206;2023-05-25T07:19:36;97642.66;;;14.47;57.92
32251;BME280;41295;48.518;9.206;2023-05-25T07:21:39;97639.78;;;14.52;57.89
32251;BME280;41295;48.518;9.206;2023-05-25T07:23:43;97643.28;;;14.52;58.25
32251;BME280;41295;48.518;9.206;2023-05-25T07:25:46;97646.44;;;14.59;58.23
32251;BME280;41295;48.518;9.206;2023-05-25T07:27:49;97639.13;;;14.66;58.03
32251;BME280;41295;48.518;9.206;2023-05-25T07:29:55;97642.22;;;14.74;58.09
32251;BME280;41295;48.518;9.206;2023-05-25T07:31:58;97639.81;;;14.70;57.63
32251;BME280;41295;48.518;9.206;2023-05-25T07:34:00;97641.22;;;14.77;57.83
32251;BME280;41295;48.518;9.206;2023-05-25T07:36:04;97643.56;;;14.83;58.04
32251;BME280;41295;48.518;9.206;2023-05-25T07:38:08;97647.66;;;14.89;58.19
32251;BME280;41295;48.518;9.206;2023-05-25T07:40:12;97647.50;;;14.92;58.13
32251;BME280;41295;48.518;9.206;2023-05-25T07:42:15;97656.94;;;14.96;57.86
32251;BME280;41295;48.518;9.206;2023-05-25T07:44:21;97653.34;;;14.99;58.19
32251;BME280;41295;48.518;9.206;2023-05-25T07:46:24;97660.44;;;14.97;58.07
32251;BME280;41295;48.518;9.206;2023-05-25T07:48:27;97659.50;;;14.98;58.14
32251;BME280;41295;48.518;9.206;2023-05-25T07:50:29;97660.28;;;15.00;58.26
32251;BME280;41295;48.518;9.206;2023-05-25T07:52:32;97661.22;;;14.99;58.40
32251;BME280;41295;48.518;9.206;2023-05-25T07:54:35;97658.72;;;14.96;58.80
32251;BME280;41295;48.518;9.206;2023-05-25T07:56:42;97657.97;;;14.94;59.08
32251;BME280;41295;48.518;9.206;2023-05-25T07:58:44;97657.19;;;14.91;59.58
32251;BME280;41295;48.518;9.206;2023-05-25T08:00:47;97661.34;;;14.96;60.03
32251;BME280;41295;48.518;9.206;2023-05-25T08:02:50;97659.50;;;14.98;59.44
32251;BME280;41295;48.518;9.206;2023-05-25T08:04:53;97659.34;;;15.01;59.27
32251;BME280;41295;48.518;9.206;2023-05-25T08:06:56;97663.69;;;15.02;59.92
32251;BME280;41295;48.518;9.206;2023-05-25T08:08:59;97656.56;;;15.04;59.90
32251;BME280;41295;48.518;9.206;2023-05-25T08:11:01;97662.97;;;14.98;60.56
32251;BME280;41295;48.518;9.206;2023-05-25T08:13:05;97655.63;;;15.05;60.09
32251;BME280;41295;48.518;9.206;2023-05-25T08:15:08;97667.25;;;15.19;59.99
32251;BME280;41295;48.518;9.206;2023-05-25T08:17:11;97660.03;;;15.22;59.32
32251;BME280;41295;48.518;9.206;2023-05-25T08:19:14;97657.72;;;15.34;59.22
32251;BME280;41295;48.518;9.206;2023-05-25T08:21:16;97659.34;;;15.36;59.19
32251;BME280;41295;48.518;9.206;2023-05-25T08:23:19;97651.75;;;15.48;59.15
32251;BME280;41295;48.518;9.206;2023-05-25T08:25:22;97659.09;;;15.59;58.76
32251;BME280;41295;48.518;9.206;2023-05-25T08:27:25;97662.22;;;15.66;58.46
32251;BME280;41295;48.518;9.206;2023-05-25T08:29:28;97663.63;;;15.73;57.98
32251;BME280;41295;48.518;9.206;2023-05-25T08:31:31;97667.00;;;15.75;58.24
32251;BME280;41295;48.518;9.206;2023-05-25T08:33:36;97665.00;;;15.80;58.21
32251;BME280;41295;48.518;9.206;2023-05-25T08:35:38;97667.13;;;15.90;58.07
32251;BME280;41295;48.518;9.206;2023-05-25T08:37:43;97665.03;;;15.96;57.94
32251;BME280;41295;48.518;9.206;2023-05-25T08:39:47;97671.47;;;15.91;57.32
32251;BME280;41295;48.518;9.206;2023-05-25T08:41:49;97663.41;;;15.94;57.42
32251;BME280;41295;48.518;9.206;2023-05-25T08:43:52;97663.88;;;16.02;57.37
32251;BME280;41295;48.518;9.206;2023-05-25T08:46:00;97659.63;;;15.99;57.41
32251;BME280;41295;48.518;9.206;2023-05-25T08:48:09;97668.28;;;16.02;57.76
32251;BME280;41295;48.518;9.206;2023-05-25T08:50:15;97661.16;;;16.04;57.93
32251;BME280;41295;48.518;9.206;2023-05-25T08:52:20;97659.22;;;16.07;57.70
32251;BME280;41295;48.518;9.206;2023-05-25T08:54:28;97664.13;;;16.14;57.72
32251;BME280;41295;48.518;9.206;2023-05-25T08:56:32;97664.72;;;16.19;57.76
32251;BME280;41295;48.518;9.206;2023-05-25T08:58:41;97658.56;;;16.20;57.01
32251;BME280;41295;48.518;9.206;2023-05-25T09:00:49;97661.88;;;16.23;57.41
32251;BME280;41295;48.518;9.206;2023-05-25T09:03:00;97657.63;;;16.21;58.02
32251;BME280;41295;48.518;9.206;2023-05-25T09:05:07;97666.63;;;16.17;57.15
32251;BME280;41295;48.518;9.206;2023-05-25T09:07:10;97661.69;;;16.27;57.92
32251;BME280;41295;48.518;9.206;2023-05-25T09:09:13;97667.03;;;16.25;58.56
32251;BME280;41295;48.518;9.206;2023-05-25T09:11:16;97668.41;;;16.32;58.34
32251;BME280;41295;48.518;9.206;2023-05-25T09:13:37;97660.00;;;16.26;57.99
32251;BME280;41295;48.518;9.206;2023-05-25T09:15:40;97660.75;;;16.28;57.03
32251;BME280;41295;48.518;9.206;2023-05-25T09:17:43;97667.91;;;16.26;58.07
32251;BME280;41295;48.518;9.206;2023-05-25T09:19:48;97670.09;;;16.33;58.30
32251;BME280;41295;48.518;9.206;2023-05-25T09:21:51;97669.94;;;16.37;57.92
32251;BME280;41295;48.518;9.206;2023-05-25T09:24:14;97675.03;;;16.40;58.52
32251;BME280;41295;48.518;9.206;2023-05-25T09:26:17;97676.53;;;16.44;58.38
32251;BME280;41295;48.518;9.206;2023-05-25T09:28:21;97671.22;;;16.45;58.05
32251;BME280;41295;48.518;9.206;2023-05-25T09:30:28;97672.81;;;16.48;58.07
32251;BME280;41295;48.518;9.206;2023-05-25T09:32:34;97675.44;;;16.48;58.53
32251;BME280;41295;48.518;9.206;2023-05-25T09:34:36;97677.06;;;16.51;58.31
32251;BME280;41295;48.518;9.206;2023-05-25T09:36:41;97686.47;;;16.55;58.17
32251;BME280;41295;48.518;9.206;2023-05-25T09:38:44;97676.91;;;16.54;57.77
32251;BME280;41295;48.518;9.206;2023-05-25T09:40:47;97685.56;;;16.56;58.07
32251;BME280;41295;48.518;9.206;2023-05-25T09:42:50;97678.25;;;16.61;58.31
32251;BME280;41295;48.518;9.206;2023-05-25T09:44:52;97677.66;;;16.72;58.10
32251;BME280;41295;48.518;9.206;2023-05-25T09:46:55;97683.34;;;16.64;57.91
32251;BME280;41295;48.518;9.206;2023-05-25T09:48:58;97678.91;;;16.81;57.67
32251;BME280;41295;48.518;9.206;2023-05-25T09:51:01;97672.44;;;16.87;57.85
32251;BME280;41295;48.518;9.206;2023-05-25T09:53:06;97664.78;;;16.98;57.96
32251;BME280;41295;48.518;9.206;2023-05-25T09:55:08;97662.75;;;16.87;56.45
32251;BME280;41295;48.518;9.206;2023-05-25T09:57:13;97673.63;;;16.97;57.11
32251;BME280;41295;48.518;9.206;2023-05-25T09:59:16;97669.53;;;16.91;57.19
32251;BME280;41295;48.518;9.206;2023-05-25T10:01:19;97672.47;;;17.01;57.54
32251;BME280;41295;48.518;9.206;2023-05-25T10:03:22;97663.75;;;17.01;57.19
32251;BME280;41295;48.518;9.206;2023-05-25T10:05:24;97665.16;;;17.06;57.37
32251;BME280;41295;48.518;9.206;2023-05-25T10:07:27;97664.09;;;17.11;57.41
32251;BME280;41295;48.518;9.206;2023-05-25T10:09:34;97663.91;;;17.14;57.83
32251;BME280;41295;48.518;9.206;2023-05-25T10:11:40;97665.44;;;17.18;57.97
32251;BME280;41295;48.518;9.206;2023-05-25T10:13:45;97669.69;;;17.21;57.79
32251;BME280;41295;48.518;9.206;2023-05-25T10:15:51;97670.84;;;17.31;57.60
32251;BME280;41295;48.518;9.206;2023-05-25T10:17:56;97666.81;;;17.40;58.05
32251;BME280;41295;48.518;9.206;2023-05-25T10:20:00;97669.63;;;17.51;58.47
32251;BME280;41295;48.518;9.206;2023-05-25T10:22:09;97664.56;;;17.63;57.45
32251;BME280;41295;48.518;9.206;2023-05-25T10:24:23;97667.69;;;17.70;58.67
32251;BME280;41295;48.518;9.206;2023-05-25T10:26:32;97672.22;;;17.82;56.97
32251;BME280;41295;48.518;9.206;2023-05-25T10:28:38;97673.22;;;17.94;56.69
32251;BME280;41295;48.518;9.206;2023-05-25T10:30:41;97674.56;;;18.01;56.89
32251;BME280;41295;48.518;9.206;2023-05-25T10:32:46;97675.78;;;18.10;56.50
32251;BME280;41295;48.518;9.206;2023-05-25T10:34:50;97669.72;;;18.08;56.63
32251;BME280;41295;48.518;9.206;2023-05-25T10:36:54;97678.25;;;18.13;55.78
32251;BME280;41295;48.518;9.206;2023-05-25T10:38:57;97673.44;;;18.06;55.46
32251;BME280;41295;48.518;9.206;2023-05-25T10:41:03;97682.59;;;18.14;55.24
32251;BME280;41295;48.518;9.206;2023-05-25T10:43:07;97675.22;;;18.20;55.56
32251;BME280;41295;48.518;9.206;2023-05-25T10:45:10;97683.34;;;18.17;54.85
32251;BME280;41295;48.518;9.206;2023-05-25T10:47:14;97678.44;;;18.25;54.69
32251;BME280;41295;48.518;9.206;2023-05-25T10:49:25;97674.09;;;18.24;55.13
32251;BME280;41295;48.518;9.206;2023-05-25T10:51:36;97679.63;;;18.34;54.99
32251;BME280;41295;48.518;9.206;2023-05-25T10:53:42;97680.00;;;18.42;55.21
32251;BME280;41295;48.518;9.206;2023-05-25T10:55:49;97675.09;;;18.50;54.99